Terminal Aerodrome Forecast
Issued by NWS

Home | Current Version | Previous Version | Text Only | Print | Product List | Glossary On
Versions: 1 2 3 4 5 6 7 8 9 10 11 12 13 14 15 16
515
FTUS46 KMFR 281248 AAA
TAFRBG
TAF AMD
KRBG 281248Z 2813/2912 35006KT P6SM OVC017
     FM281800 36008KT P6SM SCT020
     FM282100 36009G15KT P6SM SKC
     FM290900 VRB03KT P6SM BKN020=

USA.gov is the U.S. government's official web portal to all federal, state and local government web resources and services.